Time;durP1;ratioP1;P1;durP2;ratioP2;P2;SDS_P1;SDS_P2;PMS_P1;PMS_P2;Temp;Humidity;BMP_temperature;BMP_pressure;BME280_temperature;BME280_humidity;BME280_pressure;Samples;Min_cycle;Max_cycle;Signal;HPM_P1;HPM_P2
2023/06/23 03:53:40;;;;;;;5.60;5.18;;;15.50;99.90;;;;;;5551886;23;20708;-74
2023/06/23 03:56:11;;;;;;;5.75;5.35;;;15.50;99.90;;;;;;4982891;28;20229;-75
2023/06/23 03:58:39;;;;;;;6.60;6.15;;;15.50;99.90;;;;;;5000102;28;20167;-74
2023/06/23 04:01:07;;;;;;;5.97;5.57;;;15.50;99.90;;;;;;4999880;28;20254;-75
2023/06/23 04:03:37;;;;;;;6.00;5.60;;;15.50;99.90;;;;;;4981027;28;20274;-71
2023/06/23 04:06:06;;;;;;;6.50;6.00;;;15.50;99.90;;;;;;4977083;28;20258;-68
2023/06/23 04:08:35;;;;;;;6.60;6.10;;;15.60;99.90;;;;;;4976583;28;20283;-69
2023/06/23 04:11:04;;;;;;;6.07;5.68;;;15.60;99.90;;;;;;4976421;28;20204;-68
2023/06/23 04:13:33;;;;;;;6.68;6.07;;;15.60;99.90;;;;;;4977635;28;20240;-69
2023/06/23 04:16:02;;;;;;;6.25;5.60;;;15.60;99.90;;;;;;4976250;28;20644;-69
2023/06/23 04:18:31;;;;;;;6.13;5.72;;;15.70;99.90;;;;;;4975775;28;20669;-69
2023/06/23 04:20:58;;;;;;;7.03;6.43;;;15.70;99.90;;;;;;4976087;28;20231;-69
2023/06/23 04:23:26;;;;;;;6.43;5.93;;;15.70;99.90;;;;;;4976189;28;20610;-69
2023/06/23 04:25:54;;;;;;;6.60;6.13;;;15.70;99.90;;;;;;4976207;28;20570;-69
2023/06/23 04:28:25;;;;;;;7.28;6.68;;;15.70;99.90;;;;;;4976019;28;20198;-69
2023/06/23 04:30:53;;;;;;;7.18;6.63;;;15.80;99.90;;;;;;4975741;28;20278;-69
2023/06/23 04:33:20;;;;;;;8.07;7.47;;;15.80;99.90;;;;;;4975863;28;20227;-69
2023/06/23 04:35:50;;;;;;;7.10;6.60;;;15.80;99.90;;;;;;4975556;28;20671;-69
2023/06/23 04:38:22;;;;;;;7.03;6.50;;;15.80;99.90;;;;;;4975837;28;20207;-69
2023/06/23 04:40:53;;;;;;;8.00;7.40;;;15.90;99.90;;;;;;4975635;28;20222;-69
2023/06/23 04:43:27;;;;;;;8.20;7.50;;;16.00;99.90;;;;;;4975669;28;20230;-69
2023/06/23 04:45:58;;;;;;;7.97;7.38;;;16.10;99.90;;;;;;4975773;28;20183;-68
2023/06/23 04:48:27;;;;;;;9.60;8.80;;;16.30;99.90;;;;;;4975235;28;20651;-68
2023/06/23 04:50:57;;;;;;;9.50;8.70;;;16.40;99.90;;;;;;4975206;28;20686;-68
2023/06/23 04:53:31;;;;;;;8.63;7.93;;;16.50;99.90;;;;;;4975531;28;20231;-68
2023/06/23 04:56:01;;;;;;;7.93;7.32;;;16.70;99.90;;;;;;4975081;28;20211;-69
2023/06/23 04:58:33;;;;;;;8.85;8.15;;;16.80;99.90;;;;;;4975068;28;20202;-74
2023/06/23 05:01:02;;;;;;;8.23;7.63;;;16.90;99.90;;;;;;4975106;28;20697;-69
2023/06/23 05:03:31;;;;;;;7.68;7.10;;;17.10;99.90;;;;;;4975465;28;20227;-69
2023/06/23 05:05:58;;;;;;;8.85;8.05;;;17.20;99.90;;;;;;4975060;28;20685;-68
2023/06/23 05:08:28;;;;;;;8.43;7.72;;;17.40;99.90;;;;;;4975272;28;20198;-69
2023/06/23 05:10:59;;;;;;;9.43;8.63;;;17.50;99.90;;;;;;4975443;28;20539;-69
2023/06/23 05:13:30;;;;;;;9.63;8.82;;;17.70;99.90;;;;;;4975464;28;20330;-69
2023/06/23 05:15:59;;;;;;;9.43;8.52;;;17.90;99.90;;;;;;4975617;28;20187;-69
2023/06/23 05:18:27;;;;;;;9.75;8.85;;;18.20;99.90;;;;;;4975726;28;20618;-69
2023/06/23 05:20:56;;;;;;;8.90;8.10;;;18.50;99.90;;;;;;4975718;28;20222;-69
2023/06/23 05:23:24;;;;;;;9.23;8.43;;;18.70;99.90;;;;;;4975064;28;20274;-70
2023/06/23 05:25:51;;;;;;;8.73;8.02;;;18.80;99.90;;;;;;4974953;28;20207;-70
2023/06/23 05:28:20;;;;;;;9.18;8.38;;;18.80;99.90;;;;;;4974607;28;20670;-69
2023/06/23 05:30:49;;;;;;;8.32;7.63;;;18.90;99.90;;;;;;4975067;28;20241;-69
2023/06/23 05:33:19;;;;;;;8.68;7.88;;;18.90;99.90;;;;;;4975002;28;20230;-68
2023/06/23 05:35:47;;;;;;;7.65;7.05;;;19.10;99.90;;;;;;4974535;28;20670;-69
2023/06/23 05:38:15;;;;;;;8.27;7.55;;;19.30;99.90;;;;;;4974826;28;20203;-69
2023/06/23 05:40:42;;;;;;;7.80;7.20;;;19.40;99.90;;;;;;4974804;28;20227;-69
2023/06/23 05:43:09;;;;;;;7.57;6.97;;;19.40;99.90;;;;;;4974368;28;20222;-69
2023/06/23 05:45:36;;;;;;;8.55;7.75;;;19.30;99.90;;;;;;4974708;28;20210;-69
2023/06/23 05:48:09;;;;;;;7.43;6.82;;;19.20;99.90;;;;;;4974384;28;20613;-69
2023/06/23 05:50:39;;;;;;;8.35;7.55;;;19.20;99.90;;;;;;4974781;28;20263;-69
2023/06/23 05:53:08;;;;;;;8.98;8.18;;;19.30;99.90;;;;;;4974752;28;20586;-69
2023/06/23 05:55:40;;;;;;;8.25;7.55;;;19.40;99.90;;;;;;4974575;28;20222;-69
2023/06/23 05:58:10;;;;;;;8.05;7.25;;;19.50;99.90;;;;;;4974757;28;20194;-69
2023/06/23 06:00:43;;;;;;;7.57;6.97;;;19.60;99.90;;;;;;4974555;28;20270;-69
2023/06/23 06:03:15;;;;;;;7.05;6.55;;;19.70;99.90;;;;;;4974492;28;20226;-69
2023/06/23 06:05:48;;;;;;;7.57;6.97;;;19.90;99.90;;;;;;4974356;28;20191;-69
2023/06/23 06:08:16;;;;;;;7.13;6.53;;;20.90;99.90;;;;;;4976208;28;20209;-69
2023/06/23 06:10:44;;;;;;;6.95;6.43;;;21.60;99.90;;;;;;4978211;28;20199;-69
2023/06/23 06:13:11;;;;;;;7.13;6.40;;;22.00;99.90;;;;;;4977948;28;20621;-69
2023/06/23 06:15:39;;;;;;;7.22;6.57;;;22.40;99.90;;;;;;4978319;28;20210;-69
2023/06/23 06:18:07;;;;;;;7.90;7.20;;;23.30;99.90;;;;;;4978071;28;20671;-69
2023/06/23 06:20:37;;;;;;;7.95;6.32;;;24.30;99.90;;;;;;4978275;28;20330;-69
2023/06/23 06:23:06;;;;;;;6.70;6.20;;;25.50;99.90;;;;;;4978313;28;20222;-70
2023/06/23 06:25:35;;;;;;;6.70;6.10;;;26.50;99.90;;;;;;4978374;28;20210;-70
2023/06/23 06:28:06;;;;;;;6.47;5.90;;;26.90;99.90;;;;;;4978361;28;20289;-70
2023/06/23 06:30:35;;;;;;;5.75;5.25;;;27.70;99.90;;;;;;4977953;28;20187;-70
2023/06/23 06:33:04;;;;;;;5.55;5.15;;;28.60;99.90;;;;;;4978166;28;20301;-70
2023/06/23 06:35:32;;;;;;;4.88;4.53;;;29.70;99.90;;;;;;4977897;28;20206;-70
2023/06/23 06:38:01;;;;;;;4.93;4.53;;;30.90;99.90;;;;;;4978177;28;20257;-70
2023/06/23 06:40:29;;;;;;;5.35;5.05;;;31.50;99.90;;;;;;4977950;28;20222;-70
2023/06/23 06:42:56;;;;;;;5.93;5.50;;;30.90;99.90;;;;;;4977864;28;20229;-70
2023/06/23 06:45:22;;;;;;;5.47;5.07;;;30.00;99.90;;;;;;4977976;28;20202;-70
2023/06/23 06:47:50;;;;;;;5.63;5.22;;;30.30;99.90;;;;;;4977794;28;20199;-70
2023/06/23 06:50:18;;;;;;;5.57;5.20;;;31.00;99.90;;;;;;4977445;28;20667;-70
2023/06/23 06:52:46;;;;;;;5.55;5.15;;;31.90;99.90;;;;;;4978002;28;20210;-70
2023/06/23 06:55:18;;;;;;;5.05;4.65;;;32.20;99.90;;;;;;4977243;28;20242;-70
2023/06/23 06:57:46;;;;;;;5.18;4.78;;;32.70;99.90;;;;;;4977407;28;20187;-70
2023/06/23 07:00:13;;;;;;;4.40;4.20;;;33.00;99.90;;;;;;4977713;28;20317;-70
2023/06/23 07:02:40;;;;;;;4.18;3.97;;;32.80;99.90;;;;;;4977235;28;20202;-70
2023/06/23 07:05:08;;;;;;;4.72;4.43;;;32.50;99.90;;;;;;4977440;28;20206;-70
2023/06/23 07:07:35;;;;;;;5.40;4.95;;;32.50;99.90;;;;;;4977569;28;20234;-70
2023/06/23 07:10:02;;;;;;;4.45;4.25;;;31.90;99.90;;;;;;4977531;28;20210;-70
2023/06/23 07:12:31;;;;;;;5.32;4.97;;;30.60;99.90;;;;;;4977537;28;20199;-70
2023/06/23 07:14:57;;;;;;;5.35;4.93;;;29.00;99.90;;;;;;4977453;28;20218;-69
2023/06/23 07:17:24;;;;;;;5.32;5.03;;;27.60;99.90;;;;;;4977277;28;20207;-70
2023/06/23 07:19:51;;;;;;;5.30;4.95;;;26.30;99.90;;;;;;4976236;28;20658;-70
2023/06/23 07:22:19;;;;;;;5.70;5.30;;;25.20;99.90;;;;;;4977169;28;20209;-70
2023/06/23 07:24:45;;;;;;;5.45;5.10;;;24.30;99.90;;;;;;4977057;28;20234;-70
2023/06/23 07:27:14;;;;;;;6.30;5.90;;;23.70;99.90;;;;;;4977229;28;20336;-70
2023/06/23 07:29:42;;;;;;;6.25;5.80;;;23.20;99.90;;;;;;4977194;28;20206;-70
2023/06/23 07:32:10;;;;;;;5.75;5.28;;;23.00;99.90;;;;;;4977023;28;20199;-69
2023/06/23 07:34:36;;;;;;;6.18;5.70;;;23.50;99.90;;;;;;4976972;28;20230;-70
2023/06/23 07:37:03;;;;;;;6.47;5.97;;;24.30;99.90;;;;;;4977067;28;20210;-69
2023/06/23 07:39:30;;;;;;;5.50;5.13;;;25.30;99.90;;;;;;4977127;28;20210;-69
2023/06/23 07:41:57;;;;;;;6.30;5.80;;;25.70;99.90;;;;;;4976888;28;20641;-69
2023/06/23 07:44:23;;;;;;;5.80;5.30;;;26.10;99.90;;;;;;4976909;28;20226;-69
2023/06/23 07:46:51;;;;;;;5.82;5.43;;;26.60;99.90;;;;;;4976813;28;20211;-69
2023/06/23 07:49:18;;;;;;;5.60;5.10;;;27.50;99.90;;;;;;4976821;28;20206;-69
2023/06/23 07:51:45;;;;;;;4.90;4.60;;;27.80;99.90;;;;;;4976905;28;20206;-69
2023/06/23 07:54:12;;;;;;;4.47;4.20;;;27.70;99.90;;;;;;4976674;28;20277;-69
2023/06/23 07:56:38;;;;;;;4.45;4.20;;;27.70;99.90;;;;;;4976417;28;20211;-70
2023/06/23 07:59:05;;;;;;;4.72;4.43;;;27.50;99.90;;;;;;4976678;28;20199;-69
2023/06/23 08:01:32;;;;;;;;;;;26.80;99.90;;;;;;4976105;28;20215;-69
2023/06/23 08:04:00;;;;;;;4.68;4.40;;;25.90;99.90;;;;;;4976068;28;20428;-69
2023/06/23 08:06:27;;;;;;;5.43;4.93;;;25.20;99.90;;;;;;4976078;28;20610;-69
2023/06/23 08:08:53;;;;;;;4.70;4.40;;;24.50;99.90;;;;;;4976371;28;20210;-69
2023/06/23 08:11:20;;;;;;;5.45;5.10;;;23.80;99.90;;;;;;4976012;28;20666;-69
2023/06/23 08:13:49;;;;;;;4.85;4.55;;;23.40;99.90;;;;;;4976198;28;20625;-69
2023/06/23 08:16:16;;;;;;;4.50;4.20;;;23.30;99.90;;;;;;4976245;28;20207;-69
2023/06/23 08:18:42;;;;;;;4.75;4.45;;;23.20;99.90;;;;;;4976174;28;20211;-68
2023/06/23 08:21:11;;;;;;;4.72;4.43;;;23.50;99.90;;;;;;4976065;28;20227;-69
2023/06/23 08:23:38;;;;;;;4.60;4.20;;;23.70;99.90;;;;;;4976031;28;20226;-69
2023/06/23 08:26:05;;;;;;;4.53;4.22;;;23.80;99.90;;;;;;4976148;28;20234;-69
2023/06/23 08:28:31;;;;;;;4.40;3.92;;;23.90;99.90;;;;;;4975982;28;20257;-69
2023/06/23 08:30:58;;;;;;;4.25;3.88;;;23.80;99.90;;;;;;4975812;28;20207;-69
2023/06/23 08:33:25;;;;;;;4.25;4.05;;;23.80;99.90;;;;;;4974720;28;20706;-69
2023/06/23 08:35:52;;;;;;;4.32;4.03;;;23.60;99.90;;;;;;4975818;28;20206;-69
2023/06/23 08:38:22;;;;;;;4.70;4.40;;;23.40;99.90;;;;;;4975831;28;20203;-69
2023/06/23 08:40:50;;;;;;;5.15;4.75;;;23.10;99.90;;;;;;4975697;28;20211;-69
2023/06/23 08:43:17;;;;;;;4.32;4.10;;;22.90;99.90;;;;;;4975651;28;20226;-69
2023/06/23 08:45:51;;;;;;;4.30;4.10;;;23.00;99.90;;;;;;4975297;28;20607;-69
2023/06/23 08:48:18;;;;;;;5.03;4.63;;;23.20;99.90;;;;;;4975348;28;20217;-69
2023/06/23 08:50:45;;;;;;;4.53;4.32;;;23.20;99.90;;;;;;4975689;28;20202;-69
2023/06/23 08:53:12;;;;;;;4.82;4.53;;;23.40;99.90;;;;;;4975832;28;20230;-68
2023/06/23 08:55:41;;;;;;;4.50;4.20;;;23.20;99.90;;;;;;4975419;28;20221;-68
2023/06/23 08:58:08;;;;;;;4.78;4.38;;;23.00;99.90;;;;;;4975903;28;20194;-68
2023/06/23 09:00:36;;;;;;;4.90;4.55;;;22.70;99.90;;;;;;4975928;28;20198;-67
2023/06/23 09:03:03;;;;;;;4.80;4.47;;;22.30;99.90;;;;;;4975681;28;20281;-68
2023/06/23 09:05:29;;;;;;;4.55;4.35;;;22.00;99.90;;;;;;4976115;28;20205;-68
2023/06/23 09:07:56;;;;;;;4.57;4.38;;;21.80;99.90;;;;;;4975897;28;20209;-69
2023/06/23 09:10:24;;;;;;;4.72;4.43;;;21.80;99.90;;;;;;4975786;28;20258;-69
2023/06/23 09:13:20;;;;;;;4.40;4.10;;;22.00;99.90;;;;;;4975609;28;20222;-69
2023/06/23 09:15:48;;;;;;;6.40;5.90;;;22.40;99.90;;;;;;4973792;28;20611;-69
2023/06/23 09:18:16;;;;;;;5.75;5.35;;;22.30;99.90;;;;;;4975580;28;20210;-69
2023/06/23 09:20:45;;;;;;;5.18;4.85;;;22.20;99.90;;;;;;4975682;28;20203;-69
2023/06/23 09:23:16;;;;;;;5.32;4.75;;;22.20;99.90;;;;;;4975744;28;20252;-69
2023/06/23 09:25:45;;;;;;;6.50;5.90;;;21.80;99.90;;;;;;4974802;28;20689;-69
2023/06/23 09:28:24;;;;;;;5.43;5.10;;;21.60;99.90;;;;;;4974890;28;20713;-68
2023/06/23 09:30:52;;;;;;;7.50;5.53;;;21.60;99.90;;;;;;4975405;28;20187;-68
2023/06/23 09:33:20;;;;;;;6.15;5.65;;;21.50;99.90;;;;;;4981946;28;20222;-68
2023/06/23 09:35:49;;;;;;;5.95;5.55;;;21.70;99.90;;;;;;4993757;28;20203;-70
2023/06/23 09:38:19;;;;;;;6.93;6.25;;;21.90;99.90;;;;;;4993952;28;20205;-70
2023/06/23 09:40:45;;;;;;;5.53;5.13;;;21.90;99.90;;;;;;4981275;28;20315;-68
2023/06/23 09:43:14;;;;;;;4.97;4.55;;;22.10;99.90;;;;;;4974430;28;20246;-68
2023/06/23 09:45:45;;;;;;;5.05;4.75;;;22.20;99.90;;;;;;4974531;28;20704;-67
2023/06/23 09:48:17;;;;;;;4.75;4.35;;;22.20;99.90;;;;;;4974848;28;20202;-68
2023/06/23 09:50:43;;;;;;;5.13;4.82;;;21.90;99.90;;;;;;4974828;28;20241;-68
2023/06/23 09:53:12;;;;;;;4.65;4.35;;;21.60;99.90;;;;;;4974724;28;20278;-69
2023/06/23 09:55:39;;;;;;;4.97;4.57;;;21.50;99.90;;;;;;4974527;28;20255;-69
2023/06/23 09:58:08;;;;;;;4.50;4.30;;;21.60;99.90;;;;;;4974813;28;20230;-69
2023/06/23 10:00:35;;;;;;;4.60;4.30;;;21.70;99.90;;;;;;4974696;28;20203;-69
2023/06/23 10:03:03;;;;;;;4.68;4.38;;;21.70;99.90;;;;;;4974182;28;20596;-69
2023/06/23 10:05:34;;;;;;;4.35;4.07;;;21.60;99.90;;;;;;4975496;28;20579;-69
2023/06/23 10:08:09;;;;;;;5.03;4.45;;;21.60;99.90;;;;;;4974599;28;20191;-69
2023/06/23 10:10:42;;;;;;;4.55;4.25;;;21.60;99.90;;;;;;4974247;28;20678;-69
2023/06/23 10:13:09;;;;;;;4.70;4.40;;;21.70;99.90;;;;;;4974222;28;20758;-69
2023/06/23 10:15:36;;;;;;;4.20;4.00;;;21.90;99.90;;;;;;4975286;28;20207;-69
2023/06/23 10:18:05;;;;;;;4.43;4.22;;;22.10;99.90;;;;;;4974373;28;20206;-70
2023/06/23 10:20:32;;;;;;;3.63;3.42;;;22.20;99.90;;;;;;4974566;28;20199;-69
2023/06/23 10:22:59;;;;;;;4.25;3.97;;;22.10;99.90;;;;;;4974103;28;20593;-69
2023/06/23 10:25:27;;;;;;;4.88;4.40;;;22.20;99.90;;;;;;4974243;28;20670;-68
2023/06/23 10:27:57;;;;;;;3.88;3.67;;;22.30;99.90;;;;;;4974508;28;20238;-68
2023/06/23 10:30:24;;;;;;;4.25;3.92;;;22.40;99.90;;;;;;4974709;28;20190;-68
2023/06/23 10:32:54;;;;;;;3.75;3.55;;;22.50;99.90;;;;;;4974450;28;20623;-68
2023/06/23 10:35:23;;;;;;;4.25;3.97;;;22.90;99.90;;;;;;4977200;28;20199;-68
2023/06/23 10:38:02;;;;;;;3.95;3.65;;;23.00;99.90;;;;;;4977431;28;20209;-68
2023/06/23 10:40:31;;;;;;;3.58;3.38;;;23.00;99.90;;;;;;4978830;28;20219;-68
2023/06/23 10:43:00;;;;;;;3.80;3.50;;;23.00;99.90;;;;;;4975814;28;20230;-68
2023/06/23 10:45:27;;;;;;;3.42;3.17;;;22.80;99.90;;;;;;4976102;28;20225;-66
2023/06/23 10:47:55;;;;;;;4.18;3.47;;;22.60;99.90;;;;;;4978295;28;20199;-66
2023/06/23 10:50:24;;;;;;;3.45;3.25;;;22.30;99.90;;;;;;4977666;28;20195;-68
2023/06/23 10:52:51;;;;;;;3.45;3.25;;;22.30;99.90;;;;;;4977937;28;20258;-66
2023/06/23 10:55:36;;;;;;;10.70;5.55;;;22.50;99.90;;;;;;4978589;28;20245;-68
2023/06/23 10:58:10;;;;;;;3.30;3.00;;;22.70;99.90;;;;;;4980410;28;20567;-66
2023/06/23 11:00:37;;;;;;;13.35;5.32;;;22.70;99.90;;;;;;4977642;28;20206;-66
2023/06/23 11:03:08;;;;;;;9.80;6.32;;;22.20;99.90;;;;;;4977561;28;20254;-67
2023/06/23 11:05:41;;;;;;;4.13;3.72;;;22.10;99.90;;;;;;4977631;28;20210;-66
2023/06/23 11:08:12;;;;;;;3.45;3.13;;;21.90;99.90;;;;;;4977482;28;20187;-66
2023/06/23 11:10:47;;;;;;;4.22;3.90;;;21.70;99.90;;;;;;4977394;28;20560;-66
2023/06/23 11:13:14;;;;;;;3.75;3.40;;;21.80;99.90;;;;;;4977399;28;20219;-66
2023/06/23 11:15:41;;;;;;;3.53;3.22;;;22.00;99.90;;;;;;4977523;28;20207;-66
2023/06/23 11:18:12;;;;;;;7.68;4.72;;;21.90;99.90;;;;;;4977344;28;20241;-66
2023/06/23 11:20:42;;;;;;;3.90;3.70;;;21.90;99.90;;;;;;4977221;28;20226;-66
2023/06/23 11:23:10;;;;;;;4.88;3.55;;;21.90;99.90;;;;;;4977011;28;20637;-66
2023/06/23 11:25:41;;;;;;;3.38;3.17;;;22.10;99.90;;;;;;4976975;28;20203;-66
2023/06/23 11:28:33;;;;;;;3.42;3.22;;;22.00;99.90;;;;;;4977373;28;20191;-66
2023/06/23 11:31:06;;;;;;;3.17;2.97;;;22.10;99.90;;;;;;4977072;28;20191;-66
2023/06/23 11:33:34;;;;;;;2.83;2.65;;;22.10;99.90;;;;;;4977111;28;20215;-67
2023/06/23 11:36:03;;;;;;;3.22;3.03;;;22.30;99.90;;;;;;4977372;28;20217;-67
2023/06/23 11:38:31;;;;;;;3.50;3.30;;;22.60;99.90;;;;;;4976885;28;20205;-66
2023/06/23 11:40:59;;;;;;;3.25;3.05;;;23.00;99.90;;;;;;4976878;28;20203;-66
2023/06/23 11:43:26;;;;;;;3.47;3.28;;;23.10;99.90;;;;;;4976664;28;20297;-67
2023/06/23 11:45:55;;;;;;;3.03;2.83;;;23.20;99.90;;;;;;4976844;28;20202;-67
2023/06/23 11:48:22;;;;;;;3.53;3.33;;;23.40;99.90;;;;;;4976704;28;20210;-66
2023/06/23 11:50:49;;;;;;;6.30;2.90;;;23.40;99.90;;;;;;4976694;28;20210;-66
2023/06/23 11:53:17;;;;;;;3.15;2.97;;;23.30;99.90;;;;;;4976578;28;20254;-66
2023/06/23 11:55:44;;;;;;;4.88;3.05;;;23.20;99.90;;;;;;4976524;28;20233;-66
2023/06/23 11:58:11;;;;;;;3.25;3.05;;;23.20;99.90;;;;;;4976328;28;20191;-67
2023/06/23 12:00:38;;;;;;;3.00;2.90;;;23.10;99.90;;;;;;4976648;28;20225;-67
2023/06/23 12:03:04;;;;;;;2.78;2.63;;;22.90;99.90;;;;;;4976588;28;20241;-67
2023/06/23 12:05:31;;;;;;;2.55;2.45;;;22.80;99.90;;;;;;4976810;28;20203;-67
2023/06/23 12:07:58;;;;;;;2.60;2.42;;;22.50;99.90;;;;;;4976311;28;20574;-67
2023/06/23 12:10:27;;;;;;;3.90;3.20;;;22.10;99.90;;;;;;4976751;28;20203;-67
2023/06/23 12:12:56;;;;;;;3.33;3.13;;;22.00;99.90;;;;;;4976141;28;20629;-67
2023/06/23 12:15:23;;;;;;;3.63;3.42;;;22.00;99.90;;;;;;4976568;28;20682;-67
2023/06/23 12:17:50;;;;;;;3.30;3.20;;;22.30;99.90;;;;;;4976294;28;20257;-67
2023/06/23 12:20:19;;;;;;;3.70;3.30;;;22.50;99.90;;;;;;4976117;28;20211;-67
2023/06/23 12:22:50;;;;;;;4.00;3.67;;;22.50;99.90;;;;;;4975603;28;20637;-67
2023/06/23 12:25:18;;;;;;;3.97;3.67;;;22.50;99.90;;;;;;4976157;28;20211;-67
2023/06/23 12:27:52;;;;;;;3.63;3.42;;;22.60;99.90;;;;;;4976067;28;20210;-67
2023/06/23 12:30:21;;;;;;;3.33;3.13;;;22.60;99.90;;;;;;4976508;28;20215;-67
2023/06/23 12:32:48;;;;;;;3.45;3.15;;;22.70;99.90;;;;;;4975878;28;20289;-67
2023/06/23 12:35:18;;;;;;;3.47;3.28;;;22.60;99.90;;;;;;4975921;28;20203;-66
2023/06/23 12:37:47;;;;;;;3.28;3.08;;;22.50;99.90;;;;;;4975984;28;20285;-68
2023/06/23 12:40:29;;;;;;;3.05;2.85;;;22.50;99.90;;;;;;4975881;28;20206;-67
2023/06/23 12:42:58;;;;;;;3.10;2.90;;;22.60;99.90;;;;;;4975508;28;20649;-67
2023/06/23 12:45:25;;;;;;;3.00;2.90;;;22.80;99.90;;;;;;4975663;28;20210;-67
2023/06/23 12:47:52;;;;;;;3.42;3.22;;;23.00;99.90;;;;;;4975705;28;20199;-67
2023/06/23 12:50:27;;;;;;;3.30;3.20;;;23.30;99.90;;;;;;4975574;28;20207;-67
2023/06/23 12:52:54;;;;;;;3.05;2.85;;;23.40;99.90;;;;;;4975665;28;20237;-67
2023/06/23 12:55:21;;;;;;;3.58;3.38;;;23.40;99.90;;;;;;4975654;28;20218;-68
2023/06/23 12:57:49;;;;;;;3.42;3.22;;;23.30;99.90;;;;;;4976715;28;20187;-67
2023/06/23 13:00:18;;;;;;;3.20;3.00;;;23.10;99.90;;;;;;4976372;28;20234;-67
2023/06/23 13:02:45;;;;;;;3.13;2.92;;;23.10;99.90;;;;;;4976090;28;20215;-67
2023/06/23 13:05:12;;;;;;;2.92;2.83;;;23.00;99.90;;;;;;4976256;28;20211;-67
2023/06/23 13:07:38;;;;;;;3.33;3.03;;;22.90;99.90;;;;;;4976132;28;20596;-67
2023/06/23 13:10:07;;;;;;;3.13;2.92;;;22.80;99.90;;;;;;4976093;28;20690;-67
2023/06/23 13:12:33;;;;;;;3.70;3.50;;;22.70;99.90;;;;;;4976682;28;20238;-67
2023/06/23 13:15:00;;;;;;;3.70;3.38;;;22.50;99.90;;;;;;4976225;28;20198;-67
2023/06/23 13:17:28;;;;;;;3.10;2.90;;;22.40;99.90;;;;;;4975576;28;20232;-67
2023/06/23 13:19:55;;;;;;;3.53;3.33;;;22.30;99.90;;;;;;4975276;28;20207;-67
2023/06/23 13:22:22;;;;;;;4.32;3.28;;;22.30;99.90;;;;;;4975477;28;20241;-67
2023/06/23 13:24:48;;;;;;;2.80;2.70;;;22.20;99.90;;;;;;4975181;28;20226;-67
2023/06/23 13:27:15;;;;;;;3.78;3.47;;;22.10;99.90;;;;;;4975071;28;20253;-67
2023/06/23 13:29:42;;;;;;;3.25;3.05;;;22.10;99.90;;;;;;4974908;28;20209;-67
2023/06/23 13:32:09;;;;;;;2.90;2.80;;;22.20;99.90;;;;;;4974999;28;20205;-66
2023/06/23 13:34:37;;;;;;;3.50;3.30;;;22.30;99.90;;;;;;4975078;28;20218;-67
2023/06/23 13:37:04;;;;;;;3.42;3.05;;;22.30;99.90;;;;;;4975328;28;20229;-67
2023/06/23 13:39:31;;;;;;;3.50;3.30;;;22.40;99.90;;;;;;4974985;28;20257;-66
2023/06/23 13:42:00;;;;;;;3.28;2.55;;;22.60;99.90;;;;;;4975132;28;20206;-67
2023/06/23 13:44:27;;;;;;;2.60;2.50;;;22.70;99.90;;;;;;4974760;28;20258;-67
2023/06/23 13:46:53;;;;;;;2.47;2.38;;;22.80;99.90;;;;;;4974784;28;20214;-67
2023/06/23 13:49:20;;;;;;;2.80;2.70;;;22.80;99.90;;;;;;4975133;28;20207;-66
2023/06/23 13:51:48;;;;;;;2.85;2.63;;;22.70;99.90;;;;;;4975079;28;20198;-67
2023/06/23 13:54:15;;;;;;;2.50;2.40;;;22.50;99.90;;;;;;4974665;28;20639;-67
2023/06/23 13:56:42;;;;;;;3.17;2.60;;;22.50;99.90;;;;;;4974486;28;20210;-68
2023/06/23 13:59:08;;;;;;;2.58;2.47;;;22.40;97.40;;;;;;4974638;28;20199;-66
2023/06/23 14:01:35;;;;;;;2.50;2.40;;;22.40;99.90;;;;;;4974500;28;20206;-66
2023/06/23 14:04:02;;;;;;;2.70;2.60;;;22.40;99.90;;;;;;4974421;28;20575;-66
2023/06/23 14:06:28;;;;;;;2.97;2.88;;;22.60;99.90;;;;;;4974555;28;20213;-66
2023/06/23 14:08:57;;;;;;;2.83;2.63;;;22.70;99.90;;;;;;4974179;28;20610;-66
2023/06/23 14:11:24;;;;;;;4.82;4.20;;;22.90;99.90;;;;;;4974656;28;20626;-66
2023/06/23 14:13:50;;;;;;;4.75;4.45;;;22.80;99.90;;;;;;4974504;28;20351;-66
2023/06/23 14:16:17;;;;;;;4.05;3.65;;;22.90;99.90;;;;;;4974588;28;20302;-68
2023/06/23 14:18:44;;;;;;;3.70;3.50;;;23.00;99.90;;;;;;4974441;28;20203;-65
2023/06/23 14:21:12;;;;;;;3.40;3.30;;;23.20;99.90;;;;;;4974227;28;20551;-66
2023/06/23 14:23:39;;;;;;;2.65;2.50;;;23.50;99.90;;;;;;4974394;28;20326;-67
2023/06/23 14:26:07;;;;;;;2.80;2.60;;;23.40;99.90;;;;;;4974517;28;20202;-67
2023/06/23 14:28:33;;;;;;;2.83;2.63;;;23.30;99.90;;;;;;4974489;28;20199;-66
2023/06/23 14:31:00;;;;;;;3.05;2.85;;;23.10;99.10;;;;;;4977049;28;20213;-67
2023/06/23 14:33:27;;;;;;;2.63;2.53;;;23.10;99.90;;;;;;4977753;28;20669;-67
2023/06/23 14:35:54;;;;;;;2.83;2.63;;;23.10;99.90;;;;;;4978088;28;20235;-67
2023/06/23 14:38:20;;;;;;;2.75;2.65;;;23.00;99.90;;;;;;4977812;28;20625;-67
2023/06/23 14:40:47;;;;;;;2.53;2.42;;;23.10;99.90;;;;;;4977888;28;20269;-67
2023/06/23 14:43:16;;;;;;;2.88;2.78;;;23.00;98.70;;;;;;4977928;28;20223;-66
2023/06/23 14:45:43;;;;;;;2.40;2.33;;;23.10;99.90;;;;;;4978125;28;20615;-66
2023/06/23 14:48:09;;;;;;;2.63;2.53;;;23.20;99.90;;;;;;4978164;28;20293;-67
2023/06/23 14:50:36;;;;;;;3.08;2.97;;;23.20;99.90;;;;;;4978105;28;20198;-67
2023/06/23 14:53:03;;;;;;;2.60;2.50;;;23.20;99.90;;;;;;4977606;28;20714;-67
2023/06/23 14:55:32;;;;;;;2.67;2.58;;;23.20;99.90;;;;;;4977607;28;20214;-67
2023/06/23 14:57:59;;;;;;;2.35;2.25;;;23.20;99.90;;;;;;4977787;28;20207;-66
2023/06/23 15:00:27;;;;;;;2.47;2.38;;;23.20;99.90;;;;;;4977505;28;20187;-68
2023/06/23 15:02:54;;;;;;;2.65;2.55;;;23.30;99.90;;;;;;4977497;28;20223;-66
2023/06/23 15:05:20;;;;;;;3.13;2.92;;;23.40;99.90;;;;;;4978153;28;20221;-68
2023/06/23 15:07:47;;;;;;;3.20;3.00;;;23.40;99.90;;;;;;4978893;28;20262;-68
2023/06/23 15:10:14;;;;;;;2.55;2.25;;;23.40;99.90;;;;;;4978718;28;20210;-69
2023/06/23 15:12:41;;;;;;;2.95;2.75;;;23.20;94.40;;;;;;4978287;28;20183;-68
2023/06/23 15:15:09;;;;;;;2.95;2.75;;;23.00;98.60;;;;;;4977829;28;20206;-69
2023/06/23 15:17:37;;;;;;;3.25;2.80;;;22.90;99.90;;;;;;4977854;28;20214;-68
2023/06/23 15:20:05;;;;;;;2.85;2.75;;;22.90;99.90;;;;;;4977161;28;20206;-68
2023/06/23 15:22:31;;;;;;;2.45;2.35;;;22.90;99.90;;;;;;4977049;28;20662;-68
2023/06/23 15:24:59;;;;;;;2.78;2.58;;;22.80;96.30;;;;;;4977254;28;20251;-70
2023/06/23 15:27:26;;;;;;;2.90;2.80;;;22.80;97.70;;;;;;4977294;28;20191;-70
2023/06/23 15:29:52;;;;;;;3.13;3.03;;;22.70;99.90;;;;;;4977184;28;20202;-71
2023/06/23 15:32:19;;;;;;;2.92;2.83;;;22.80;99.90;;;;;;4977715;28;20589;-70
2023/06/23 15:34:47;;;;;;;2.53;2.42;;;23.00;99.90;;;;;;4977064;28;20226;-70
2023/06/23 15:37:14;;;;;;;2.60;2.50;;;23.10;99.90;;;;;;4977092;28;20198;-70
2023/06/23 15:39:41;;;;;;;2.95;2.75;;;23.10;99.90;;;;;;4977089;28;20592;-70
2023/06/23 15:42:10;;;;;;;4.22;2.95;;;23.10;99.90;;;;;;4977351;28;20225;-71
2023/06/23 15:44:39;;;;;;;3.28;2.97;;;23.00;99.90;;;;;;4976908;28;20254;-70
2023/06/23 15:47:06;;;;;;;3.13;2.85;;;23.00;99.90;;;;;;4976885;28;20187;-70
2023/06/23 15:49:33;;;;;;;2.95;2.85;;;22.90;99.90;;;;;;4976839;28;20209;-71
2023/06/23 15:52:01;;;;;;;2.67;2.58;;;22.80;99.90;;;;;;4976443;28;20203;-71
2023/06/23 15:54:28;;;;;;;3.50;3.30;;;22.60;99.90;;;;;;4976750;28;20222;-70
2023/06/23 15:56:54;;;;;;;3.20;2.95;;;22.50;99.90;;;;;;4976408;28;20221;-74
2023/06/23 15:59:21;;;;;;;3.33;3.00;;;22.40;99.90;;;;;;4976872;28;20670;-71
2023/06/23 16:01:48;;;;;;;3.22;3.03;;;22.30;99.90;;;;;;4976713;28;20207;-74
2023/06/23 16:04:15;;;;;;;3.70;3.25;;;22.30;99.90;;;;;;4976537;28;20317;-71
2023/06/23 16:06:41;;;;;;;2.50;2.40;;;22.40;99.90;;;;;;4976613;28;20211;-71
2023/06/23 16:09:09;;;;;;;3.08;2.88;;;22.50;99.90;;;;;;4976110;28;20262;-71
2023/06/23 16:11:36;;;;;;;3.20;3.10;;;22.70;99.90;;;;;;4976546;28;20234;-71
2023/06/23 16:14:03;;;;;;;3.30;3.10;;;23.00;99.90;;;;;;4976127;28;20710;-71
2023/06/23 16:16:30;;;;;;;3.20;3.10;;;23.10;99.90;;;;;;4976263;28;20207;-72
2023/06/23 16:18:57;;;;;;;2.85;2.65;;;23.30;99.90;;;;;;4976204;28;20195;-72
2023/06/23 16:21:23;;;;;;;3.60;3.40;;;23.40;99.90;;;;;;4976338;28;20203;-71
2023/06/23 16:23:50;;;;;;;2.75;2.65;;;23.50;99.90;;;;;;4976619;28;20562;-71
2023/06/23 16:26:18;;;;;;;2.90;2.80;;;23.60;99.90;;;;;;4977016;28;20207;-73
2023/06/23 16:28:45;;;;;;;3.08;2.88;;;23.60;99.90;;;;;;4976910;28;20203;-70
2023/06/23 16:31:12;;;;;;;2.88;2.78;;;23.60;99.90;;;;;;4976855;28;20214;-70
2023/06/23 16:33:38;;;;;;;3.03;2.83;;;23.60;99.90;;;;;;4976024;28;20244;-72
2023/06/23 16:36:06;;;;;;;4.10;3.20;;;23.50;99.90;;;;;;4976029;28;20203;-72
2023/06/23 16:38:33;;;;;;;3.42;3.22;;;23.40;99.90;;;;;;4975815;28;20210;-72
2023/06/23 16:41:00;;;;;;;3.83;3.50;;;23.40;99.90;;;;;;4975780;28;20662;-71
2023/06/23 16:43:28;;;;;;;3.03;2.83;;;23.50;99.90;;;;;;4975845;28;20227;-71
2023/06/23 16:45:55;;;;;;;2.88;2.78;;;23.50;99.90;;;;;;4975773;28;20663;-72